Hanseatic Scout — V2BM2 — position and weather

sailwx.info

Track history (hours):
 
Tides and Currents Weather Stations Pressure Air Temp Water Temp Dewpoint Dewpoint Depression Visibility Wind Speed Wind Dir Waves Ship Positions

Hanseatic Scout

Last reported at 2015-Jul-02 18:10 UTC. Time now 2015-Jul-03 02:35 UTC.
Position N 55°39' E 021°09'.

Length 89 m; draft 6.3 m.

Type: Cargo ship. MMSI: 304867000.

Date/timePositionNaut miles runAvg speedWind from/ knotsBaromVisibWave heightAir tempDewpointWater temp
2015-Jul-02 18:10N 55°39' E 021°09'0 0.0
2015-Jul-02 17:26N 55°39' E 021°09'0 0.0
2015-Jul-02 16:33N 55°39' E 021°10'0 0.0
2015-Jul-02 15:33N 55°39' E 021°09'0 0.0
2015-Jul-02 14:34N 55°39' E 021°09'0 0.0
2015-Jul-02 13:34N 55°39' E 021°09'0 0.0
2015-Jul-02 12:33N 55°39' E 021°10'0 0.0
2015-Jul-02 07:13N 55°39' E 021°09'0 0.0
2015-Jul-02 06:33N 55°39' E 021°09'0 0.0
2015-Jul-02 05:33N 55°39' E 021°09'0 0.0
2015-Jul-02 04:33N 55°39' E 021°09'0 0.0
2015-Jul-02 03:33N 55°39' E 021°09'0 0.0
2015-Jul-02 02:28N 55°39' E 021°09'0 0.0
2015-Jul-02 01:33N 55°39' E 021°09'0 0.0
2015-Jul-02 00:33N 55°39' E 021°09'0 0.0
2015-Jul-01 23:33N 55°39' E 021°09'0 0.0
2015-Jul-01 18:33N 55°39' E 021°09'0 0.0
2015-Jul-01 17:33N 55°39' E 021°09'0 0.0
2015-Jul-01 15:26N 55°39' E 021°09'0 0.0
2015-Jul-01 14:34N 55°39' E 021°09'  
2015-Jun-28 19:33N 55°44' E 020°59'10 9.5
2015-Jun-28 18:31N 55°42' E 020°42'9 9.6
2015-Jun-28 17:33N 55°38' E 020°27'10 9.5
2015-Jun-28 16:33N 55°35' E 020°11'10 9.8
2015-Jun-28 15:33N 55°31' E 019°55'1010.2
2015-Jun-28 14:33N 55°27' E 019°39'1110.5
2015-Jun-28 13:33N 55°22' E 019°22'1010.5
2015-Jun-28 12:33N 55°18' E 019°05'1010.3
2015-Jun-28 11:34N 55°14' E 018°49'1010.0
2015-Jun-28 10:34N 55°10' E 018°32'1010.0
2015-Jun-28 09:33N 55°06' E 018°16'10 9.9
2015-Jun-28 08:30N 55°03' E 017°59'10 9.7
2015-Jun-28 07:31N 54°58' E 017°44'9 9.7
2015-Jun-28 06:32N 54°55' E 017°29'167 9.6
2015-Jun-27 13:16N 54°40' E 012°41'7 9.7
2015-Jun-27 12:33N 54°36' E 012°31'9 9.5
2015-Jun-27 11:33N 54°31' E 012°17'9 8.8
2015-Jun-27 10:33N 54°24' E 012°08'10 9.8
2015-Jun-27 09:33N 54°24' E 011°51'1010.1
2015-Jun-27 08:33N 54°28' E 011°35'10 9.7
2015-Jun-27 07:33N 54°32' E 011°20'9 8.9
2015-Jun-27 06:34N 54°35' E 011°05'9 9.1
2015-Jun-27 05:34N 54°34' E 010°49'9 9.4
2015-Jun-27 04:33N 54°33' E 010°33'10 9.6
2015-Jun-27 03:33N 54°29' E 010°18'9 8.9
2015-Jun-27 02:33N 54°22' E 010°09'2 2.4
2015-Jun-27 01:33N 54°22' E 010°05'8 7.7
2015-Jun-27 00:34N 54°22' E 009°52'6 5.7
2015-Jun-26 23:33N 54°19' E 009°43'6 5.9
2015-Jun-26 22:34N 54°15' E 009°37'8 8.0
2015-Jun-26 21:34N 54°10' E 009°26'8 7.8
2015-Jun-26 20:33N 54°03' E 009°19'7 7.2
2015-Jun-26 19:33N 53°57' E 009°14'3 3.4
2015-Jun-26 18:33N 53°54' E 009°10'2 1.7
2015-Jun-26 17:33N 53°53' E 009°08'2 2.4
2015-Jun-26 16:33N 53°52' E 009°04'1110.5
2015-Jun-26 15:33N 53°51' E 008°46'1010.0
2015-Jun-26 14:33N 53°58' E 008°34'1010.0
2015-Jun-26 13:33N 53°60' E 008°18'10 9.6
2015-Jun-26 12:32N 53°58' E 008°01'10 9.7
2015-Jun-26 11:31N 53°56' E 007°45'41 9.2
2015-Jun-26 07:04N 53°47' E 006°37'7 9.4
2015-Jun-26 06:22N 53°45' E 006°26'8 9.6
2015-Jun-26 05:33N 53°43' E 006°14'1010.0
2015-Jun-26 04:33N 53°39' E 005°58'1010.4
2015-Jun-26 03:33N 53°36' E 005°41'1110.6
2015-Jun-26 02:33N 53°33' E 005°24'1110.6
2015-Jun-26 01:34N 53°30' E 005°07'1111.0
2015-Jun-26 00:33N 53°25' E 004°50'1010.5
2015-Jun-25 23:34N 53°18' E 004°38'1211.8
2015-Jun-25 22:33N 53°07' E 004°29'1111.3
2015-Jun-25 21:33N 52°57' E 004°20'1110.9
2015-Jun-25 20:33N 52°47' E 004°12'1010.5
2015-Jun-25 19:34N 52°39' E 004°02'10 9.9
2015-Jun-25 18:33N 52°30' E 003°55'10 9.7
2015-Jun-25 17:33N 52°21' E 003°52'9 9.3
2015-Jun-25 16:33N 52°11' E 003°54'9 9.0
2015-Jun-25 15:33N 52°02' E 003°54'9 9.0
2015-Jun-25 14:33N 51°58' E 004°07'0 0.3
2015-Jun-25 13:32N 51°58' E 004°07'0 0.0
2015-Jun-25 12:32N 51°58' E 004°07'0 0.0
2015-Jun-25 11:32N 51°58' E 004°07'0 0.0
2015-Jun-25 10:32N 51°58' E 004°07'0 0.0
2015-Jun-25 09:32N 51°58' E 004°07'0 0.0
2015-Jun-25 08:32N 51°58' E 004°07'0 0.0
2015-Jun-25 07:32N 51°58' E 004°07'0 0.0
2015-Jun-25 06:32N 51°58' E 004°07'0 0.0
2015-Jun-25 05:32N 51°58' E 004°07'0 0.0
2015-Jun-25 04:32N 51°58' E 004°07'0 0.0
2015-Jun-25 03:32N 51°58' E 004°07'0 0.0
2015-Jun-25 02:32N 51°58' E 004°07'0 0.0
2015-Jun-25 01:32N 51°58' E 004°07'0 0.0
2015-Jun-25 00:32N 51°58' E 004°07'0 0.0
2015-Jun-24 23:32N 51°58' E 004°07'0 0.0
2015-Jun-24 22:32N 51°58' E 004°07'0 0.0
2015-Jun-24 21:32N 51°58' E 004°07'0 0.0
2015-Jun-24 20:32N 51°58' E 004°07'0 0.0
2015-Jun-24 19:32N 51°58' E 004°07'0 0.3
2015-Jun-24 18:31N 51°57' E 004°08'0 0.0
2015-Jun-24 17:31N 51°57' E 004°08'0 0.0
2015-Jun-24 16:31N 51°57' E 004°08'0 0.0
2015-Jun-24 15:31N 51°57' E 004°08'0 0.0
2015-Jun-24 14:31N 51°57' E 004°08'0 0.0
2015-Jun-24 13:31N 51°57' E 004°08'0 0.0
2015-Jun-24 12:31N 51°57' E 004°08'0 0.0
2015-Jun-24 11:31N 51°57' E 004°08'0 0.0
2015-Jun-24 10:31N 51°57' E 004°08'0 0.0
2015-Jun-24 09:31N 51°57' E 004°08'0 0.0
2015-Jun-24 08:31N 51°57' E 004°08'0 0.0
2015-Jun-24 07:31N 51°57' E 004°08'0 0.0
2015-Jun-24 06:31N 51°57' E 004°08'0 0.0
2015-Jun-24 05:31N 51°57' E 004°08'0 0.0
2015-Jun-24 04:31N 51°57' E 004°08'0 0.0
2015-Jun-24 03:31N 51°57' E 004°08'0 0.0
2015-Jun-24 02:31N 51°57' E 004°08'0 0.0
2015-Jun-24 01:31N 51°57' E 004°08'0 0.0
2015-Jun-24 00:31N 51°57' E 004°08'0 0.0
2015-Jun-23 23:31N 51°57' E 004°08'0 0.0
2015-Jun-23 22:31N 51°57' E 004°08'0 0.0
2015-Jun-23 21:31N 51°57' E 004°08'0 0.0
2015-Jun-23 20:31N 51°57' E 004°08'0 0.0
2015-Jun-23 19:31N 51°57' E 004°08'0 0.0
2015-Jun-23 19:04N 51°57' E 004°08'0 0.0
2015-Jun-22 19:31N 51°57' E 004°08'0 0.0
2015-Jun-22 18:31N 51°57' E 004°08'  
Track history (hours):
 
Tides and Currents Weather Stations Pressure Air Temp Water Temp Dewpoint Dewpoint Depression Visibility Wind Speed Wind Dir Waves Ship Positions

Hanseatic Scout

Last reported at 2015-Jul-02 18:10 UTC. Time now 2015-Jul-03 02:35 UTC.
Position N 55°39' E 021°09'.

Length 89 m; draft 6.3 m.

Type: Cargo ship. MMSI: 304867000.

Date/timePositionNaut miles runAvg speedWind from/ knotsBaromVisibWave heightAir tempDewpointWater temp
2015-Jul-02 18:10N 55°39' E 021°09'0 0.0
2015-Jul-02 17:26N 55°39' E 021°09'0 0.0
2015-Jul-02 16:33N 55°39' E 021°10'0 0.0
2015-Jul-02 15:33N 55°39' E 021°09'0 0.0
2015-Jul-02 14:34N 55°39' E 021°09'0 0.0
2015-Jul-02 13:34N 55°39' E 021°09'0 0.0
2015-Jul-02 12:33N 55°39' E 021°10'0 0.0
2015-Jul-02 07:13N 55°39' E 021°09'0 0.0
2015-Jul-02 06:33N 55°39' E 021°09'0 0.0
2015-Jul-02 05:33N 55°39' E 021°09'0 0.0
2015-Jul-02 04:33N 55°39' E 021°09'0 0.0
2015-Jul-02 03:33N 55°39' E 021°09'0 0.0
2015-Jul-02 02:28N 55°39' E 021°09'0 0.0
2015-Jul-02 01:33N 55°39' E 021°09'0 0.0
2015-Jul-02 00:33N 55°39' E 021°09'0 0.0
2015-Jul-01 23:33N 55°39' E 021°09'0 0.0
2015-Jul-01 18:33N 55°39' E 021°09'0 0.0
2015-Jul-01 17:33N 55°39' E 021°09'0 0.0
2015-Jul-01 15:26N 55°39' E 021°09'0 0.0
2015-Jul-01 14:34N 55°39' E 021°09'  
2015-Jun-28 19:33N 55°44' E 020°59'10 9.5
2015-Jun-28 18:31N 55°42' E 020°42'9 9.6
2015-Jun-28 17:33N 55°38' E 020°27'10 9.5
2015-Jun-28 16:33N 55°35' E 020°11'10 9.8
2015-Jun-28 15:33N 55°31' E 019°55'1010.2
2015-Jun-28 14:33N 55°27' E 019°39'1110.5
2015-Jun-28 13:33N 55°22' E 019°22'1010.5
2015-Jun-28 12:33N 55°18' E 019°05'1010.3
2015-Jun-28 11:34N 55°14' E 018°49'1010.0
2015-Jun-28 10:34N 55°10' E 018°32'1010.0
2015-Jun-28 09:33N 55°06' E 018°16'10 9.9
2015-Jun-28 08:30N 55°03' E 017°59'10 9.7
2015-Jun-28 07:31N 54°58' E 017°44'9 9.7
2015-Jun-28 06:32N 54°55' E 017°29'167 9.6
2015-Jun-27 13:16N 54°40' E 012°41'7 9.7
2015-Jun-27 12:33N 54°36' E 012°31'9 9.5
2015-Jun-27 11:33N 54°31' E 012°17'9 8.8
2015-Jun-27 10:33N 54°24' E 012°08'10 9.8
2015-Jun-27 09:33N 54°24' E 011°51'1010.1
2015-Jun-27 08:33N 54°28' E 011°35'10 9.7
2015-Jun-27 07:33N 54°32' E 011°20'9 8.9
2015-Jun-27 06:34N 54°35' E 011°05'9 9.1
2015-Jun-27 05:34N 54°34' E 010°49'9 9.4
2015-Jun-27 04:33N 54°33' E 010°33'10 9.6
2015-Jun-27 03:33N 54°29' E 010°18'9 8.9
2015-Jun-27 02:33N 54°22' E 010°09'2 2.4
2015-Jun-27 01:33N 54°22' E 010°05'8 7.7
2015-Jun-27 00:34N 54°22' E 009°52'6 5.7
2015-Jun-26 23:33N 54°19' E 009°43'6 5.9
2015-Jun-26 22:34N 54°15' E 009°37'8 8.0
2015-Jun-26 21:34N 54°10' E 009°26'8 7.8
2015-Jun-26 20:33N 54°03' E 009°19'7 7.2
2015-Jun-26 19:33N 53°57' E 009°14'3 3.4
2015-Jun-26 18:33N 53°54' E 009°10'2 1.7
2015-Jun-26 17:33N 53°53' E 009°08'2 2.4
2015-Jun-26 16:33N 53°52' E 009°04'1110.5
2015-Jun-26 15:33N 53°51' E 008°46'1010.0
2015-Jun-26 14:33N 53°58' E 008°34'1010.0
2015-Jun-26 13:33N 53°60' E 008°18'10 9.6
2015-Jun-26 12:32N 53°58' E 008°01'10 9.7
2015-Jun-26 11:31N 53°56' E 007°45'41 9.2
2015-Jun-26 07:04N 53°47' E 006°37'7 9.4
2015-Jun-26 06:22N 53°45' E 006°26'8 9.6
2015-Jun-26 05:33N 53°43' E 006°14'1010.0
2015-Jun-26 04:33N 53°39' E 005°58'1010.4
2015-Jun-26 03:33N 53°36' E 005°41'1110.6
2015-Jun-26 02:33N 53°33' E 005°24'1110.6
2015-Jun-26 01:34N 53°30' E 005°07'1111.0
2015-Jun-26 00:33N 53°25' E 004°50'1010.5
2015-Jun-25 23:34N 53°18' E 004°38'1211.8
2015-Jun-25 22:33N 53°07' E 004°29'1111.3
2015-Jun-25 21:33N 52°57' E 004°20'1110.9
2015-Jun-25 20:33N 52°47' E 004°12'1010.5
2015-Jun-25 19:34N 52°39' E 004°02'10 9.9
2015-Jun-25 18:33N 52°30' E 003°55'10 9.7
2015-Jun-25 17:33N 52°21' E 003°52'9 9.3
2015-Jun-25 16:33N 52°11' E 003°54'9 9.0
2015-Jun-25 15:33N 52°02' E 003°54'9 9.0
2015-Jun-25 14:33N 51°58' E 004°07'0 0.3
2015-Jun-25 13:32N 51°58' E 004°07'0 0.0
2015-Jun-25 12:32N 51°58' E 004°07'0 0.0
2015-Jun-25 11:32N 51°58' E 004°07'0 0.0
2015-Jun-25 10:32N 51°58' E 004°07'0 0.0
2015-Jun-25 09:32N 51°58' E 004°07'0 0.0
2015-Jun-25 08:32N 51°58' E 004°07'0 0.0
2015-Jun-25 07:32N 51°58' E 004°07'0 0.0
2015-Jun-25 06:32N 51°58' E 004°07'0 0.0
2015-Jun-25 05:32N 51°58' E 004°07'0 0.0
2015-Jun-25 04:32N 51°58' E 004°07'0 0.0
2015-Jun-25 03:32N 51°58' E 004°07'0 0.0
2015-Jun-25 02:32N 51°58' E 004°07'0 0.0
2015-Jun-25 01:32N 51°58' E 004°07'0 0.0
2015-Jun-25 00:32N 51°58' E 004°07'0 0.0
2015-Jun-24 23:32N 51°58' E 004°07'0 0.0
2015-Jun-24 22:32N 51°58' E 004°07'0 0.0
2015-Jun-24 21:32N 51°58' E 004°07'0 0.0
2015-Jun-24 20:32N 51°58' E 004°07'0 0.0
2015-Jun-24 19:32N 51°58' E 004°07'0 0.3
2015-Jun-24 18:31N 51°57' E 004°08'0 0.0
2015-Jun-24 17:31N 51°57' E 004°08'0 0.0
2015-Jun-24 16:31N 51°57' E 004°08'0 0.0
2015-Jun-24 15:31N 51°57' E 004°08'0 0.0
2015-Jun-24 14:31N 51°57' E 004°08'0 0.0
2015-Jun-24 13:31N 51°57' E 004°08'0 0.0
2015-Jun-24 12:31N 51°57' E 004°08'0 0.0
2015-Jun-24 11:31N 51°57' E 004°08'0 0.0
2015-Jun-24 10:31N 51°57' E 004°08'0 0.0
2015-Jun-24 09:31N 51°57' E 004°08'0 0.0
2015-Jun-24 08:31N 51°57' E 004°08'0 0.0
2015-Jun-24 07:31N 51°57' E 004°08'0 0.0
2015-Jun-24 06:31N 51°57' E 004°08'0 0.0
2015-Jun-24 05:31N 51°57' E 004°08'0 0.0
2015-Jun-24 04:31N 51°57' E 004°08'0 0.0
2015-Jun-24 03:31N 51°57' E 004°08'0 0.0
2015-Jun-24 02:31N 51°57' E 004°08'0 0.0
2015-Jun-24 01:31N 51°57' E 004°08'0 0.0
2015-Jun-24 00:31N 51°57' E 004°08'0 0.0
2015-Jun-23 23:31N 51°57' E 004°08'0 0.0
2015-Jun-23 22:31N 51°57' E 004°08'0 0.0
2015-Jun-23 21:31N 51°57' E 004°08'0 0.0
2015-Jun-23 20:31N 51°57' E 004°08'0 0.0
2015-Jun-23 19:31N 51°57' E 004°08'0 0.0
2015-Jun-23 19:04N 51°57' E 004°08'0 0.0
2015-Jun-22 19:31N 51°57' E 004°08'0 0.0
2015-Jun-22 18:31N 51°57' E 004°08'  

Dump ship's entire track history